Time;durP1;ratioP1;P1;durP2;ratioP2;P2;SDS_P1;SDS_P2;PMS_P1;PMS_P2;Temp;Humidity;BMP_temperature;BMP_pressure;BME280_temperature;BME280_humidity;BME280_pressure;Samples;Min_cycle;Max_cycle;Signal;HPM_P1;HPM_P2
2022/12/22 03:25:54;;;;;;;64.00;31.27;;;;;;;4.09;62.29;99857.69;7738262;32;38046;-83
2022/12/22 03:30:11;;;;;;;71.20;32.13;;;;;;;4.06;62.58;99853.53;7737903;32;37079;-83
2022/12/22 03:34:27;;;;;;;63.72;29.65;;;;;;;4.21;62.20;99855.00;7738216;32;40101;-81
2022/12/22 03:38:43;;;;;;;55.55;29.10;;;;;;;3.90;63.07;99844.22;7738169;32;40023;-82
2022/12/22 03:47:34;;;;;;;64.18;31.20;;;;;;;3.83;63.21;99853.41;7737731;32;36918;-82
2022/12/22 03:51:51;;;;;;;62.08;30.98;;;;;;;3.80;63.13;99854.72;7737980;32;38958;-82
2022/12/22 03:56:08;;;;;;;65.75;30.33;;;;;;;4.12;62.63;99839.16;7737795;32;40850;-82
2022/12/22 04:00:24;;;;;;;67.82;29.12;;;;;;;3.85;63.53;99845.94;7737744;32;39157;-82
2022/12/22 04:04:40;;;;;;;67.40;30.70;;;;;;;4.21;62.56;99855.00;7737783;32;37743;-83
2022/12/22 04:08:56;;;;;;;63.25;29.58;;;;;;;4.20;62.28;99848.78;7737741;32;38978;-83
2022/12/22 04:13:13;;;;;;;56.35;28.75;;;;;;;4.08;63.05;99859.53;7737178;32;40870;-83
2022/12/22 04:17:29;;;;;;;65.75;30.70;;;;;;;4.06;63.07;99853.53;7737304;32;37579;-83
2022/12/22 04:21:45;;;;;;;59.78;28.38;;;;;;;3.94;63.18;99839.19;7737439;32;37175;-82
2022/12/22 04:26:01;;;;;;;60.63;29.73;;;;;;;4.25;62.05;99840.84;7737367;32;40004;-82
2022/12/22 04:30:17;;;;;;;64.75;30.92;;;;;;;4.09;61.87;99831.50;7736608;32;40176;-83
2022/12/22 04:34:34;;;;;;;59.60;28.85;;;;;;;4.16;62.12;99825.19;7736796;32;37941;-83
2022/12/22 04:38:50;;;;;;;56.92;26.87;;;;;;;4.08;62.62;99832.56;7737050;32;37964;-83
2022/12/22 04:43:06;;;;;;;62.65;29.70;;;;;;;3.91;63.11;99837.75;7736841;32;39091;-83
2022/12/22 04:47:22;;;;;;;63.92;29.75;;;;;;;4.07;62.67;99833.63;7736675;32;40708;-82
2022/12/22 04:51:38;;;;;;;59.88;29.48;;;;;;;4.12;62.67;99831.06;7736528;32;37781;-82
2022/12/22 04:56:00;;;;;;;56.70;29.52;;;;;;;3.90;63.78;99843.41;7736685;32;37893;-83
2022/12/22 05:00:16;;;;;;;54.72;30.23;;;;;;;4.07;63.38;99843.56;7736667;32;39312;-82
2022/12/22 05:04:33;;;;;;;58.95;30.67;;;;;;;3.94;63.72;99836.47;7736210;32;40902;-83
2022/12/22 05:08:49;;;;;;;72.78;32.03;;;;;;;4.02;63.34;99844.28;7736276;32;38834;-82
2022/12/22 05:13:05;;;;;;;58.00;29.90;;;;;;;3.86;63.88;99847.56;7736261;32;37950;-83
2022/12/22 05:17:21;;;;;;;63.87;30.85;;;;;;;3.79;64.00;99858.44;7736133;32;39174;-83
2022/12/22 05:21:37;;;;;;;60.90;29.45;;;;;;;3.90;63.48;99854.19;7735935;32;40803;-83
2022/12/22 05:25:54;;;;;;;62.58;31.25;;;;;;;4.27;62.39;99838.72;7722137;32;37684;-82
2022/12/22 05:30:12;;;;;;;64.00;30.52;;;;;;;4.20;62.26;99848.78;7735911;32;37596;-83
2022/12/22 05:34:28;;;;;;;64.20;28.52;;;;;;;4.17;62.06;99833.06;7707052;32;40449;-82
2022/12/22 05:38:45;;;;;;;66.25;30.52;;;;;;;4.14;62.45;99834.34;7708788;32;40604;-81
2022/12/22 05:43:01;;;;;;;58.80;29.95;;;;;;;3.96;63.04;99834.37;7712793;32;38671;-80
2022/12/22 05:47:17;;;;;;;65.55;29.75;;;;;;;4.07;62.86;99833.63;7725718;32;37244;-82
2022/12/22 05:51:33;;;;;;;62.80;29.55;;;;;;;4.03;62.97;99843.19;7739340;32;39220;-81
2022/12/22 05:55:51;;;;;;;63.05;31.37;;;;;;;4.22;62.47;99825.09;7739184;32;39874;-81
2022/12/22 06:00:14;;;;;;;65.97;31.98;;;;;;;4.29;62.25;99814.22;7739172;32;38691;-81
2022/12/22 06:04:30;;;;;;;56.78;29.90;;;;;;;4.09;63.00;99820.72;7739254;32;37660;-81
2022/12/22 06:08:46;;;;;;;59.78;30.88;;;;;;;4.06;63.29;99823.88;7739240;32;39241;-82
2022/12/22 06:13:03;;;;;;;66.35;30.60;;;;;;;4.03;63.26;99821.62;7738391;32;40016;-81
2022/12/22 06:17:19;;;;;;;59.03;28.67;;;;;;;4.22;62.71;99822.41;7738950;32;38054;-81
2022/12/22 06:21:35;;;;;;;55.75;25.92;;;;;;;4.19;62.93;99825.59;7739026;32;37200;-81
2022/12/22 06:25:56;;;;;;;55.47;24.90;;;;;;;4.20;62.96;99839.88;7738707;32;39210;-78
2022/12/22 06:30:13;;;;;;;47.42;23.67;;;;;;;4.70;63.73;99828.75;7738610;32;41033;-82
2022/12/22 06:34:29;;;;;;;49.10;25.58;;;;;;;4.68;65.68;99837.09;7738702;32;37892;-83
2022/12/22 06:38:46;;;;;;;53.78;26.20;;;;;;;4.63;62.52;99863.16;7738531;32;37951;-82
2022/12/22 06:43:08;;;;;;;57.92;27.85;;;;;;;4.63;61.47;99868.56;7738565;32;40436;-83
2022/12/22 06:47:25;;;;;;;62.20;29.02;;;;;;;4.37;61.76;99869.75;7738366;32;40054;-82
2022/12/22 06:51:41;;;;;;;74.20;33.15;;;;;;;4.54;60.85;99878.03;7730075;32;37913;-82
2022/12/22 06:55:58;;;;;;;63.25;31.52;;;;;;;4.06;62.22;99869.72;7736285;32;37094;-79
2022/12/22 07:00:14;;;;;;;68.57;30.60;;;;;;;4.21;61.88;99860.41;7737039;32;39285;-79
2022/12/22 07:04:31;;;;;;;66.97;29.73;;;;;;;4.31;61.53;99858.84;7736951;32;40155;-83
2022/12/22 07:08:47;;;;;;;69.18;32.50;;;;;;;4.44;64.24;99871.31;7730583;32;38699;-82
2022/12/22 07:13:17;;;;;;;70.07;31.30;;;;;;;4.33;62.99;99864.00;7718994;32;38048;-82
2022/12/22 07:17:34;;;;;;;63.38;30.75;;;;;;;4.58;62.05;99871.13;7737082;32;39089;-81
2022/12/22 07:21:50;;;;;;;72.20;32.05;;;;;;;4.51;61.81;99866.63;7728278;32;40562;-82
2022/12/22 07:26:08;;;;;;;63.17;32.25;;;;;;;4.20;63.05;99866.88;7734648;32;38681;-82
2022/12/22 07:30:24;;;;;;;69.62;34.38;;;;;;;4.39;62.65;99865.78;7736308;32;37233;-82
2022/12/22 07:34:40;;;;;;;76.05;33.80;;;;;;;4.61;62.42;99865.25;7733436;32;39969;-80
2022/12/22 07:38:56;;;;;;;59.20;30.25;;;;;;;4.59;62.52;99862.78;7737203;32;39651;-82
2022/12/22 07:43:13;;;;;;;58.80;28.10;;;;;;;4.94;61.53;99853.12;7735397;32;37866;-81
2022/12/22 07:47:29;;;;;;;61.60;28.23;;;;;;;4.60;62.35;99847.41;7737063;32;37934;-81
2022/12/22 07:51:50;;;;;;;64.40;28.27;;;;;;;4.68;62.24;99847.91;7736430;32;40086;-82
2022/12/22 07:56:07;;;;;;;57.00;27.17;;;;;;;4.77;61.85;99845.69;7722472;32;40893;-81
2022/12/22 08:00:23;;;;;;;49.25;24.65;;;;;;;4.85;61.58;99842.66;7736879;32;38725;-81
2022/12/22 08:04:39;;;;;;;49.40;24.77;;;;;;;4.88;61.44;99842.19;7727929;32;37148;-83
2022/12/22 08:08:56;;;;;;;47.60;23.83;;;;;;;4.79;61.31;99830.06;7723204;32;40147;-82
2022/12/22 08:13:12;;;;;;;51.47;25.33;;;;;;;4.95;61.25;99827.72;7729705;32;40190;-82
2022/12/22 08:17:28;;;;;;;53.45;23.90;;;;;;;4.64;61.84;99827.81;7720942;32;37973;-81
2022/12/22 08:21:44;;;;;;;52.03;25.67;;;;;;;4.83;61.72;99812.34;7720308;32;38044;-82
2022/12/22 08:26:12;;;;;;;54.20;24.67;;;;;;;4.83;61.77;99816.91;7712001;32;39952;-82
2022/12/22 08:30:29;;;;;;;51.88;25.30;;;;;;;4.89;61.52;99815.97;7717771;32;40433;-81
2022/12/22 08:34:48;;;;;;;54.85;25.88;;;;;;;5.00;60.94;99808.94;7701329;32;225978;-81
2022/12/22 08:39:04;;;;;;;42.03;23.17;;;;;;;5.03;61.00;99816.56;7706224;32;37854;-82
2022/12/22 08:43:20;;;;;;;50.12;24.67;;;;;;;5.10;60.71;99819.16;7709139;32;40010;-81
2022/12/22 08:47:37;;;;;;;48.58;24.67;;;;;;;4.79;61.66;99823.84;7721469;32;40348;-82
2022/12/22 08:51:53;;;;;;;42.22;23.17;;;;;;;5.13;60.61;99829.50;7734534;32;38605;-82
2022/12/22 08:56:09;;;;;;;43.05;23.02;;;;;;;5.19;60.21;99828.56;7735175;32;37997;-80
2022/12/22 09:00:26;;;;;;;45.25;22.50;;;;;;;5.11;60.52;99810.84;7745161;32;39958;-81
2022/12/22 09:04:42;;;;;;;43.55;23.98;;;;;;;5.24;59.52;99821.41;7721933;32;40097;-81
2022/12/22 09:09:00;;;;;;;51.78;22.17;;;;;;;5.45;59.08;99822.69;7733796;32;37790;-80
2022/12/22 09:13:17;;;;;;;44.35;22.60;;;;;;;5.54;58.13;99816.91;7720756;32;36042;-80
2022/12/22 09:17:35;;;;;;;45.97;22.75;;;;;;;5.44;58.92;99815.63;7736581;32;39263;-82
2022/12/22 09:21:51;;;;;;;45.83;23.35;;;;;;;5.64;58.20;99809.00;7735139;32;40033;-81
2022/12/22 09:26:09;;;;;;;46.97;24.58;;;;;;;5.63;58.64;99799.25;7732679;32;38726;-79
2022/12/22 09:30:25;;;;;;;47.42;23.17;;;;;;;5.66;58.49;99793.38;7737434;32;37257;-81
2022/12/22 09:34:41;;;;;;;45.80;24.27;;;;;;;5.82;57.53;99810.72;7738019;32;39346;-83
2022/12/22 09:38:57;;;;;;;44.83;22.60;;;;;;;5.70;58.21;99802.63;7737125;32;40266;-81
2022/12/22 09:43:17;;;;;;;45.33;22.95;;;;;;;5.82;57.40;99794.47;7737175;32;36802;-84
2022/12/22 09:47:37;;;;;;;49.03;25.17;;;;;;;5.81;57.20;99798.25;7735689;32;36288;-86
2022/12/22 09:51:59;;;;;;;50.97;24.12;;;;;;;5.87;56.71;99800.00;7735553;32;40017;-84
2022/12/22 09:56:16;;;;;;;53.00;27.33;;;;;;;6.19;57.22;99788.72;7721389;32;39636;-84
2022/12/22 10:00:35;;;;;;;56.83;28.70;;;;;;;6.10;56.36;99768.53;7721116;32;38500;-84
2022/12/22 10:05:19;;;;;;;56.90;29.75;;;;;;;5.97;58.11;99769.66;7723945;32;37881;-82
2022/12/22 10:09:36;;;;;;;64.10;31.92;;;;;;;5.90;57.96;99775.16;7736038;32;39906;-81
2022/12/22 10:14:09;;;;;;;59.55;30.50;;;;;;;6.18;57.37;99768.94;7722938;32;40865;-85
2022/12/22 10:18:28;;;;;;;57.58;31.00;;;;;;;5.81;58.93;99760.38;7711135;32;38750;-85
2022/12/22 10:22:54;;;;;;;59.53;31.60;;;;;;;6.18;58.50;99738.34;7735213;32;37365;-82
2022/12/22 10:27:10;;;;;;;61.47;31.52;;;;;;;6.39;57.50;99740.34;7734046;32;39628;-68
2022/12/22 10:31:31;;;;;;;60.72;31.62;;;;;;;6.77;57.65;99741.47;7736594;32;39962;-79
2022/12/22 10:35:56;;;;;;;62.55;29.70;;;;;;;7.80;55.41;99729.25;7738009;32;38809;-79
2022/12/22 10:40:16;;;;;;;63.22;29.58;;;;;;;8.31;54.12;99725.38;7735621;32;37438;-79
2022/12/22 10:44:33;;;;;;;49.08;27.52;;;;;;;8.45;53.22;99727.47;7735882;32;40362;-79
2022/12/22 10:48:50;;;;;;;52.65;29.05;;;;;;;8.68;51.57;99730.09;7723873;32;40739;-79
2022/12/22 10:53:06;;;;;;;55.17;28.50;;;;;;;8.19;53.28;99722.84;7738508;32;38732;-79
2022/12/22 10:57:27;;;;;;;59.60;30.08;;;;;;;8.57;54.72;99708.25;7722932;32;37408;-79
2022/12/22 11:01:43;;;;;;;55.83;27.70;;;;;;;9.07;51.61;99706.13;7725140;32;39909;-79
2022/12/22 11:06:10;;;;;;;54.05;26.35;;;;;;;9.27;51.00;99702.69;7736556;32;38965;-79
2022/12/22 11:10:47;;;;;;;48.90;25.45;;;;;;;9.31;50.09;99702.97;7737433;32;38694;-79
2022/12/22 11:15:47;;;;;;;45.55;23.52;;;;;;;9.24;49.19;99699.69;7738254;32;37921;-79
2022/12/22 11:20:30;;;;;;;47.70;23.77;;;;;;;9.08;49.70;99698.78;7645111;32;40060;-79
2022/12/22 11:24:52;;;;;;;45.28;23.40;;;;;;;9.10;49.73;99710.22;7696819;32;39945;-79
2022/12/22 11:29:28;;;;;;;40.65;22.62;;;;;;;9.29;48.70;99703.22;7729466;32;37975;-78
2022/12/22 11:34:16;;;;;;;39.35;21.98;;;;;;;9.20;48.50;99700.19;7736906;32;37962;-79
2022/12/22 11:39:00;;;;;;;42.78;22.40;;;;;;;8.86;49.10;99705.19;7716397;32;40032;-81
2022/12/22 11:43:29;;;;;;;46.15;22.65;;;;;;;8.49;50.03;99708.75;7725143;32;40673;-83
2022/12/22 11:47:56;;;;;;;41.85;21.67;;;;;;;8.50;49.52;99704.94;7717357;32;37962;-83
2022/12/22 11:52:22;;;;;;;45.80;23.50;;;;;;;8.11;51.03;99710.56;7718711;32;36859;-82
2022/12/22 11:56:46;;;;;;;45.12;25.02;;;;;;;8.25;51.28;99695.47;7737529;32;39814;-83
2022/12/22 12:01:24;;;;;;;42.85;23.52;;;;;;;8.08;51.08;99695.59;7721125;32;39726;-81
2022/12/22 12:06:02;;;;;;;44.65;24.60;;;;;;;8.09;51.15;99712.72;7735336;32;36539;-81
2022/12/22 12:10:28;;;;;;;48.95;25.98;;;;;;;8.11;51.55;99721.41;7731269;32;37291;-81
2022/12/22 12:14:59;;;;;;;46.17;24.95;;;;;;;7.79;51.77;99741.16;7714566;32;40046;-83
2022/12/22 12:19:26;;;;;;;50.50;26.08;;;;;;;7.52;51.92;99760.94;7720636;32;40019;-82
2022/12/22 12:23:58;;;;;;;51.63;25.15;;;;;;;7.32;52.50;99772.34;7731129;32;38602;-82
2022/12/22 12:28:41;;;;;;;48.08;25.20;;;;;;;7.15;52.72;99766.97;7734980;32;37138;-79
2022/12/22 12:33:06;;;;;;;52.95;26.35;;;;;;;6.98;53.37;99763.47;7714094;32;39939;-79
2022/12/22 12:37:36;;;;;;;54.20;25.58;;;;;;;6.90;54.20;99761.19;7720135;32;37963;-81
2022/12/22 12:42:04;;;;;;;55.22;27.27;;;;;;;6.81;55.50;99749.91;7720818;32;37667;-79
2022/12/22 12:46:39;;;;;;;52.10;26.58;;;;;;;6.90;55.52;99736.81;7720855;32;37195;-79
2022/12/22 12:50:57;;;;;;;63.47;31.65;;;;;;;7.12;55.43;99671.75;7735201;32;39274;-76
2022/12/22 12:55:29;;;;;;;58.90;29.83;;;;;;;6.54;57.80;99668.53;7739707;32;40037;-82
2022/12/22 12:59:49;;;;;;;58.97;30.65;;;;;;;6.49;60.21;99660.34;7740124;32;38660;-82
2022/12/22 13:04:27;;;;;;;58.05;28.52;;;;;;;6.74;61.68;99660.72;7739987;32;37197;-84
2022/12/22 13:09:01;;;;;;;58.05;31.77;;;;;;;6.85;60.31;99666.28;7728534;32;40041;-84
2022/12/22 13:13:39;;;;;;;55.28;31.40;;;;;;;7.30;58.19;99635.37;7738721;32;39955;-84
2022/12/22 13:17:55;;;;;;;65.45;33.00;;;;;;;7.02;58.66;99630.97;7739807;32;38008;-87
2022/12/22 13:22:12;;;;;;;70.75;35.03;;;;;;;6.76;59.34;99615.22;7739797;32;37335;-83
2022/12/22 13:26:36;;;;;;;67.82;33.60;;;;;;;6.75;58.72;99610.84;7739802;32;40195;-85
2022/12/22 13:31:01;;;;;;;70.35;34.83;;;;;;;6.67;58.90;99622.13;7739659;32;40864;-84
2022/12/22 13:35:36;;;;;;;71.47;35.80;;;;;;;6.25;59.91;99622.59;7726700;32;37852;-85
2022/12/22 13:40:17;;;;;;;74.80;35.20;;;;;;;6.22;60.46;99608.75;7739396;32;37104;-85
2022/12/22 13:44:34;;;;;;;72.75;35.17;;;;;;;6.46;59.21;99609.38;7739038;32;39224;-86
2022/12/22 13:48:53;;;;;;;77.90;36.17;;;;;;;6.26;59.99;99605.31;7739202;32;41414;-84
2022/12/22 13:53:10;;;;;;;70.28;37.42;;;;;;;6.35;60.03;99609.22;7739197;32;38762;-84
2022/12/22 13:57:38;;;;;;;70.82;35.97;;;;;;;6.44;59.36;99620.44;7739305;32;37293;-75
2022/12/22 14:01:59;;;;;;;77.28;35.65;;;;;;;6.68;63.30;99614.81;7725116;32;39606;-84
2022/12/22 14:06:37;;;;;;;71.75;34.38;;;;;;;6.74;58.93;99617.34;7739210;32;40018;-84
2022/12/22 14:10:54;;;;;;;73.60;35.75;;;;;;;6.64;58.89;99622.63;7726013;32;38832;-85
2022/12/22 14:15:16;;;;;;;72.03;35.20;;;;;;;6.60;58.83;99651.28;7725488;32;37925;-75
2022/12/22 14:19:36;;;;;;;71.43;36.42;;;;;;;6.54;60.37;99638.75;7726032;32;39261;-76
2022/12/22 14:23:53;;;;;;;71.20;34.63;;;;;;;6.62;59.34;99624.75;7739132;32;39902;-75
2022/12/22 14:28:21;;;;;;;74.85;35.10;;;;;;;6.57;59.17;99643.63;7725261;32;38707;-75
2022/12/22 14:32:40;;;;;;;76.22;35.95;;;;;;;6.61;58.86;99631.25;7739028;32;37210;-75
2022/12/22 14:36:57;;;;;;;81.22;37.13;;;;;;;6.59;58.44;99641.53;7725322;32;39801;-75
2022/12/22 14:41:40;;;;;;;73.35;36.13;;;;;;;6.63;58.51;99636.44;7738688;32;39949;-74
2022/12/22 14:46:07;;;;;;;71.37;36.10;;;;;;;6.72;58.18;99630.31;7739148;32;38466;-83
2022/12/22 14:50:28;;;;;;;73.20;36.50;;;;;;;6.68;58.02;99629.19;7725196;32;37020;-84
2022/12/22 14:54:47;;;;;;;68.70;34.90;;;;;;;6.46;58.59;99629.13;7724928;32;40392;-86
2022/12/22 14:59:20;;;;;;;77.03;35.15;;;;;;;6.61;58.85;99622.31;7724891;32;40831;-86
2022/12/22 15:03:38;;;;;;;;;;;;;;;6.53;58.58;99610.00;7726235;32;38695;-82
2022/12/22 15:07:57;;;;;;;76.25;35.90;;;;;;;6.42;58.67;99602.81;7738914;32;37566;-84
2022/12/22 15:12:24;;;;;;;66.07;34.55;;;;;;;6.25;59.15;99603.66;7738152;32;39946;-74
2022/12/22 15:16:41;;;;;;;66.75;34.22;;;;;;;6.50;61.65;99595.09;7717782;32;40816;-85
2022/12/22 15:20:57;;;;;;;65.57;34.00;;;;;;;6.69;59.82;99570.38;7711464;32;38664;-87
2022/12/22 15:25:19;;;;;;;74.60;33.92;;;;;;;6.79;57.69;99575.94;7711467;32;38057;-82
2022/12/22 15:29:37;;;;;;;;;;;;;;;6.62;57.86;99591.44;7711838;32;39938;-83
2022/12/22 15:33:54;;;;;;;75.82;34.17;;;;;;;6.37;57.94;99588.13;7711672;32;40186;-82
2022/12/22 15:38:17;;;;;;;71.93;32.95;;;;;;;6.13;58.74;99589.41;7710028;32;37462;-82
2022/12/22 15:42:33;;;;;;;66.70;33.97;;;;;;;6.58;56.95;99575.69;7723787;32;37491;-84
2022/12/22 15:46:55;;;;;;;73.18;35.50;;;;;;;6.22;58.43;99589.78;7738026;32;40101;-83
2022/12/22 15:51:19;;;;;;;70.75;35.40;;;;;;;6.11;58.65;99596.94;7724364;32;41039;-83
2022/12/22 15:55:41;;;;;;;69.43;34.00;;;;;;;5.92;59.21;99599.88;7724418;32;37388;-83
2022/12/22 15:59:57;;;;;;;76.70;36.40;;;;;;;6.03;58.77;99627.13;7737815;32;37278;-83
2022/12/22 16:04:13;;;;;;;71.40;34.95;;;;;;;6.06;58.73;99637.47;7737844;32;39226;-83
2022/12/22 16:08:35;;;;;;;71.80;34.75;;;;;;;5.98;59.11;99634.06;7737650;32;40823;-82
2022/12/22 16:12:58;;;;;;;79.03;35.50;;;;;;;5.95;59.92;99626.44;7737606;32;37851;-82
2022/12/22 16:17:23;;;;;;;70.90;37.05;;;;;;;6.09;59.54;99621.56;7736752;32;37269;-83
2022/12/22 16:21:39;;;;;;;81.75;37.85;;;;;;;6.04;59.80;99607.94;7736761;32;40834;-83
2022/12/22 16:25:57;;;;;;;81.25;39.55;;;;;;;5.96;60.17;99611.84;7735888;32;40051;-83
2022/12/22 16:30:20;;;;;;;79.50;36.25;;;;;;;5.91;60.72;99613.63;7736898;32;37962;-83
2022/12/22 16:34:36;;;;;;;75.30;38.65;;;;;;;6.06;60.60;99616.62;7736115;32;37233;-82
2022/12/22 16:38:52;;;;;;;80.62;38.08;;;;;;;5.88;60.71;99631.19;7749964;32;38897;-83
2022/12/22 16:43:28;;;;;;;75.35;35.88;;;;;;;5.71;61.48;99635.72;7744696;32;39650;-83
2022/12/22 16:48:06;;;;;;;74.80;36.08;;;;;;;5.79;61.68;99635.34;7727494;32;38373;-83
2022/12/22 16:52:37;;;;;;;84.47;39.20;;;;;;;5.87;61.43;99623.31;7736315;32;37965;-83
2022/12/22 16:56:54;;;;;;;83.47;37.28;;;;;;;5.41;62.78;99631.41;7725534;32;39261;-82
2022/12/22 17:01:26;;;;;;;81.65;38.90;;;;;;;5.37;63.10;99630.28;7736511;32;40028;-82
2022/12/22 17:05:47;;;;;;;79.43;39.20;;;;;;;5.62;62.49;99635.31;7723478;32;37569;-82
2022/12/22 17:10:03;;;;;;;84.57;38.78;;;;;;;5.79;61.98;99644.28;7715459;32;37930;-82
2022/12/22 17:14:28;;;;;;;86.95;40.28;;;;;;;5.79;62.26;99643.47;7729888;32;39156;-82
2022/12/22 17:18:44;;;;;;;78.50;38.28;;;;;;;5.53;63.06;99632.19;7713690;32;39586;-81
2022/12/22 17:23:01;;;;;;;81.05;38.70;;;;;;;5.61;63.16;99636.41;7709787;32;38514;-82
2022/12/22 17:27:24;;;;;;;86.63;38.80;;;;;;;5.77;62.67;99632.88;7731467;32;37220;-82
2022/12/22 17:31:40;;;;;;;83.20;38.77;;;;;;;5.69;62.63;99636.00;7735773;32;39447;-83
2022/12/22 17:35:57;;;;;;;89.28;41.53;;;;;;;5.71;62.66;99635.72;7735394;32;40063;-82
2022/12/22 17:40:29;;;;;;;79.85;39.67;;;;;;;5.77;62.62;99630.19;7739413;32;37860;-82
2022/12/22 17:44:46;;;;;;;85.12;40.58;;;;;;;5.83;62.62;99623.81;7725618;32;37124;-81
2022/12/22 17:49:02;;;;;;;90.82;42.42;;;;;;;5.87;62.28;99607.91;7739526;32;39848;-82
2022/12/22 17:53:20;;;;;;;91.95;42.88;;;;;;;5.53;63.83;99578.09;7739096;32;39972;-82
2022/12/22 17:57:36;;;;;;;90.07;40.80;;;;;;;5.35;64.27;99583.75;7738466;32;38010;-82
2022/12/22 18:01:52;;;;;;;86.03;41.83;;;;;;;5.21;64.92;99575.91;7739311;32;38348;-82
2022/12/22 18:06:08;;;;;;;92.90;43.00;;;;;;;4.91;66.20;99613.13;7711033;32;38920;-82
2022/12/22 18:10:36;;;;;;;92.60;44.35;;;;;;;5.12;65.71;99619.78;7713071;32;39679;-81
2022/12/22 18:14:52;;;;;;;86.22;41.72;;;;;;;5.32;64.94;99627.47;7721519;32;38446;-82
2022/12/22 18:19:09;;;;;;;94.82;42.95;;;;;;;5.23;65.51;99625.13;7738882;32;37189;-81
2022/12/22 18:23:31;;;;;;;72.43;38.70;;;;;;;5.41;64.63;99616.00;7738260;32;39340;-82
2022/12/22 18:27:48;;;;;;;87.95;40.45;;;;;;;5.20;65.45;99611.28;7729779;32;40812;-81
2022/12/22 18:32:04;;;;;;;74.70;39.10;;;;;;;5.33;65.25;99607.47;7722260;32;38750;-81
2022/12/22 18:36:29;;;;;;;87.97;41.00;;;;;;;5.37;65.25;99608.66;7738883;32;37289;-81
2022/12/22 18:40:46;;;;;;;85.72;41.33;;;;;;;5.56;64.50;99599.25;7726275;32;40058;-83
2022/12/22 18:45:03;;;;;;;87.28;41.80;;;;;;;5.21;65.39;99604.84;7709460;32;40049;-83
2022/12/22 18:49:19;;;;;;;84.13;42.67;;;;;;;5.50;64.68;99605.63;7739203;32;38873;-82
2022/12/22 18:53:35;;;;;;;92.00;40.97;;;;;;;5.73;63.90;99595.75;7762288;32;37835;-82
2022/12/22 18:57:52;;;;;;;84.15;40.10;;;;;;;5.52;64.62;99598.09;7738260;32;39592;-82
2022/12/22 19:02:24;;;;;;;76.47;39.65;;;;;;;5.34;65.27;99582.09;7738608;32;40040;-83
2022/12/22 19:06:41;;;;;;;90.25;39.28;;;;;;;5.42;64.71;99565.47;7736025;32;37969;-83
2022/12/22 19:11:05;;;;;;;81.37;40.15;;;;;;;5.42;65.06;99560.06;7738620;32;37190;-83
2022/12/22 19:15:29;;;;;;;81.03;39.67;;;;;;;5.40;65.18;99540.56;7724344;32;39235;-82
2022/12/22 19:19:45;;;;;;;81.53;39.80;;;;;;;5.44;64.98;99539.81;7724668;32;40683;-83
2022/12/22 19:24:01;;;;;;;82.45;39.92;;;;;;;4.98;66.37;99535.47;7738290;32;38499;-84
2022/12/22 19:28:44;;;;;;;84.55;40.10;;;;;;;5.01;66.83;99522.31;7738332;32;37147;-82
2022/12/22 19:33:02;;;;;;;79.85;39.33;;;;;;;5.19;66.19;99515.88;7736076;32;40057;-83
2022/12/22 19:37:19;;;;;;;85.72;41.05;;;;;;;5.39;65.67;99528.09;7724229;32;39040;-82
2022/12/22 19:41:38;;;;;;;86.68;39.05;;;;;;;4.91;66.71;99514.00;7722597;32;37983;-82
2022/12/22 19:45:54;;;;;;;77.62;39.80;;;;;;;4.88;67.27;99531.53;7736729;32;37453;-81
2022/12/22 19:50:18;;;;;;;80.32;39.70;;;;;;;4.95;67.28;99515.19;7722005;32;39742;-81
2022/12/22 19:54:35;;;;;;;82.85;38.95;;;;;;;5.15;66.61;99508.50;7734760;32;39618;-82
2022/12/22 19:58:51;;;;;;;86.05;39.67;;;;;;;5.17;66.56;99507.19;7736082;32;37890;-83
2022/12/22 20:03:11;;;;;;;84.37;39.30;;;;;;;5.40;65.67;99500.03;7723008;32;36904;-82
2022/12/22 20:07:28;;;;;;;82.55;39.63;;;;;;;5.05;67.01;99495.59;7724552;32;39978;-82
2022/12/22 20:11:45;;;;;;;80.40;38.40;;;;;;;5.48;65.41;99510.41;7754408;32;40534;-81
2022/12/22 20:16:02;;;;;;;85.15;40.42;;;;;;;5.22;66.48;99509.97;7735451;32;38171;-81
2022/12/22 20:20:22;;;;;;;83.57;39.70;;;;;;;5.31;66.01;99490.66;7737625;32;38047;-81
2022/12/22 20:24:38;;;;;;;78.65;39.25;;;;;;;5.34;66.52;99498.28;7737687;32;38992;-82
2022/12/22 20:28:54;;;;;;;80.65;38.78;;;;;;;5.41;66.29;99494.34;7737454;32;40626;-81
2022/12/22 20:33:11;;;;;;;86.95;40.08;;;;;;;5.20;66.71;99493.19;7737072;32;37995;-83
2022/12/22 20:37:28;;;;;;;84.20;39.65;;;;;;;5.57;65.57;99500.84;7737198;32;37858;-83
2022/12/22 20:41:45;;;;;;;82.28;39.92;;;;;;;5.53;65.59;99488.88;7722434;32;38965;-84
2022/12/22 20:46:19;;;;;;;77.35;37.65;;;;;;;5.39;65.87;99492.97;7736343;32;40866;-85
2022/12/22 20:50:36;;;;;;;71.93;37.17;;;;;;;5.24;66.64;99490.81;7708912;32;38820;-85
2022/12/22 20:54:52;;;;;;;78.30;37.03;;;;;;;5.41;66.15;99504.34;7734927;32;37475;-85
2022/12/22 20:59:21;;;;;;;81.57;36.17;;;;;;;5.36;66.35;99517.78;7736706;32;39763;-84
2022/12/22 21:03:37;;;;;;;83.90;37.80;;;;;;;5.46;66.48;99526.88;7736155;32;40939;-84
2022/12/22 21:07:53;;;;;;;81.47;38.28;;;;;;;5.58;65.87;99524.09;7735793;32;38682;-84
2022/12/22 21:12:09;;;;;;;80.75;36.65;;;;;;;5.19;67.35;99526.69;7737274;32;37067;-84
2022/12/22 21:16:27;;;;;;;80.85;38.40;;;;;;;5.56;65.99;99531.66;7739812;32;39993;-85
2022/12/22 21:20:44;;;;;;;86.32;38.25;;;;;;;5.36;66.93;99523.19;7738739;32;40003;-84
2022/12/22 21:25:00;;;;;;;81.53;38.65;;;;;;;5.51;67.76;99528.03;7739762;32;37628;-84
2022/12/22 21:29:22;;;;;;;81.00;37.13;;;;;;;5.65;66.56;99538.28;7739724;32;37083;-84
2022/12/22 21:33:38;;;;;;;123.32;39.60;;;;;;;5.51;66.48;99542.38;7726014;32;39800;-84
2022/12/22 21:37:56;;;;;;;84.75;37.70;;;;;;;5.61;66.21;99549.84;7738767;32;39612;-82
2022/12/22 21:42:17;;;;;;;102.35;44.58;;;;;;;5.60;66.22;99538.19;7739305;32;37632;-82
2022/12/22 21:46:33;;;;;;;106.55;45.30;;;;;;;5.59;66.00;99541.16;7739546;32;37268;-83
2022/12/22 21:50:49;;;;;;;93.00;42.95;;;;;;;5.32;66.44;99535.56;7739095;32;39231;-82
2022/12/22 21:55:06;;;;;;;97.80;46.05;;;;;;;5.65;65.37;99518.53;7738613;32;40133;-81
2022/12/22 21:59:22;;;;;;;94.43;45.17;;;;;;;5.36;66.08;99526.69;7739167;32;37927;-82
2022/12/22 22:03:38;;;;;;;87.00;43.28;;;;;;;5.61;65.31;99518.22;7739180;32;36910;-81
2022/12/22 22:07:56;;;;;;;88.60;43.08;;;;;;;5.56;65.78;99510.00;7739099;32;38971;-82
2022/12/22 22:16:47;;;;;;;92.22;42.95;;;;;;;5.49;65.93;99503.94;7738624;32;38451;-82
2022/12/22 22:21:05;;;;;;;86.93;41.58;;;;;;;5.45;67.01;99514.44;7739053;32;37369;-81
2022/12/22 22:25:22;;;;;;;67.57;36.03;;;;;;;5.47;66.17;99500.69;7738343;32;39112;-81
2022/12/22 22:29:39;;;;;;;83.37;41.05;;;;;;;5.68;65.36;99506.41;7739068;32;39607;-81
2022/12/22 22:33:55;;;;;;;77.40;39.65;;;;;;;5.68;65.40;99495.59;7738534;32;37896;-81
2022/12/22 22:38:13;;;;;;;84.30;41.00;;;;;;;5.74;65.21;99483.78;7738146;32;37104;-81
2022/12/22 22:42:29;;;;;;;78.37;38.35;;;;;;;5.62;65.35;99476.59;7738770;32;40712;-82
2022/12/22 22:46:45;;;;;;;87.97;40.85;;;;;;;5.65;65.28;99481.47;7738756;32;39914;-81
2022/12/22 22:51:02;;;;;;;83.20;41.70;;;;;;;5.64;65.26;99482.56;7738283;32;38045;-81
2022/12/22 22:55:18;;;;;;;97.20;42.60;;;;;;;5.15;66.82;99490.37;7738792;32;37126;-81
2022/12/22 22:59:34;;;;;;;91.12;41.17;;;;;;;5.48;66.41;99485.25;7738642;32;39037;-81
2022/12/22 23:03:51;;;;;;;86.20;39.15;;;;;;;5.73;65.43;99484.84;7738582;32;40066;-81
2022/12/22 23:08:07;;;;;;;90.28;39.88;;;;;;;5.67;65.52;99485.84;7736806;32;38706;-81
2022/12/22 23:12:23;;;;;;;94.20;39.63;;;;;;;5.52;66.51;99472.88;7738472;32;37823;-81
2022/12/22 23:16:39;;;;;;;90.97;38.85;;;;;;;5.35;67.40;99470.19;7738441;32;39213;-81
2022/12/22 23:21:00;;;;;;;92.90;39.35;;;;;;;5.35;68.10;99489.13;7738570;32;40011;-81
2022/12/22 23:25:17;;;;;;;106.43;43.30;;;;;;;5.24;68.33;99502.47;7736693;32;38022;-81
2022/12/22 23:29:34;;;;;;;100.18;41.65;;;;;;;5.25;67.92;99493.28;7737528;32;37277;-81
2022/12/22 23:33:50;;;;;;;103.47;41.00;;;;;;;5.01;68.76;99491.78;7738416;32;39488;-81
2022/12/22 23:38:07;;;;;;;96.25;41.60;;;;;;;5.49;67.42;99485.03;7738033;32;39666;-80
2022/12/22 23:42:23;;;;;;;87.18;41.30;;;;;;;5.57;66.69;99484.63;7737961;32;38660;-81
2022/12/22 23:46:40;;;;;;;91.43;40.15;;;;;;;5.65;66.42;99465.25;7737906;32;37158;-80